sensor_id;sensor_type;location;lat;lon;timestamp;P1;durP1;ratioP1;P2;durP2;ratioP2
43540;SDS011;29549;40.386;-3.710;2022-10-16T00:08:01;17.90;;;11.70;;
43540;SDS011;29549;40.386;-3.710;2022-10-16T00:18:03;13.02;;;5.82;;
43540;SDS011;29549;40.386;-3.710;2022-10-16T00:28:06;11.63;;;6.00;;
43540;SDS011;29549;40.386;-3.710;2022-10-16T00:38:08;14.48;;;6.20;;
43540;SDS011;29549;40.386;-3.710;2022-10-16T00:48:12;12.00;;;6.22;;
43540;SDS011;29549;40.386;-3.710;2022-10-16T00:58:15;9.05;;;5.72;;
43540;SDS011;29549;40.386;-3.710;2022-10-16T01:08:29;11.10;;;5.38;;
43540;SDS011;29549;40.386;-3.710;2022-10-16T01:18:44;9.93;;;5.07;;
43540;SDS011;29549;40.386;-3.710;2022-10-16T01:49:13;8.65;;;4.70;;
43540;SDS011;29549;40.386;-3.710;2022-10-16T01:59:20;8.65;;;4.45;;
43540;SDS011;29549;40.386;-3.710;2022-10-16T02:09:29;7.55;;;4.78;;
43540;SDS011;29549;40.386;-3.710;2022-10-16T02:19:44;8.35;;;5.47;;
43540;SDS011;29549;40.386;-3.710;2022-10-16T02:30:06;9.88;;;4.38;;
43540;SDS011;29549;40.386;-3.710;2022-10-16T02:40:21;8.27;;;4.40;;
43540;SDS011;29549;40.386;-3.710;2022-10-16T02:50:25;7.32;;;5.10;;
43540;SDS011;29549;40.386;-3.710;2022-10-16T03:00:30;6.65;;;5.20;;
43540;SDS011;29549;40.386;-3.710;2022-10-16T03:10:33;8.40;;;5.37;;
43540;SDS011;29549;40.386;-3.710;2022-10-16T03:20:38;7.93;;;5.05;;
43540;SDS011;29549;40.386;-3.710;2022-10-16T03:30:42;7.47;;;5.20;;
43540;SDS011;29549;40.386;-3.710;2022-10-16T03:40:47;8.85;;;5.28;;
43540;SDS011;29549;40.386;-3.710;2022-10-16T03:50:51;12.45;;;5.13;;
43540;SDS011;29549;40.386;-3.710;2022-10-16T04:00:54;8.30;;;5.17;;
43540;SDS011;29549;40.386;-3.710;2022-10-16T04:10:58;8.23;;;4.20;;
43540;SDS011;29549;40.386;-3.710;2022-10-16T04:21:04;5.93;;;4.22;;
43540;SDS011;29549;40.386;-3.710;2022-10-16T04:31:07;7.28;;;4.15;;
43540;SDS011;29549;40.386;-3.710;2022-10-16T04:41:10;9.75;;;4.80;;
43540;SDS011;29549;40.386;-3.710;2022-10-16T04:51:14;6.53;;;4.10;;
43540;SDS011;29549;40.386;-3.710;2022-10-16T05:01:16;7.07;;;5.10;;
43540;SDS011;29549;40.386;-3.710;2022-10-16T05:11:19;7.85;;;4.40;;
43540;SDS011;29549;40.386;-3.710;2022-10-16T05:21:21;7.47;;;5.00;;
43540;SDS011;29549;40.386;-3.710;2022-10-16T05:31:24;8.77;;;4.78;;
43540;SDS011;29549;40.386;-3.710;2022-10-16T05:41:27;6.40;;;5.00;;
43540;SDS011;29549;40.386;-3.710;2022-10-16T05:51:30;9.18;;;5.53;;
43540;SDS011;29549;40.386;-3.710;2022-10-16T06:01:32;6.95;;;4.80;;
43540;SDS011;29549;40.386;-3.710;2022-10-16T06:11:35;6.60;;;4.32;;
43540;SDS011;29549;40.386;-3.710;2022-10-16T06:21:40;6.53;;;4.53;;
43540;SDS011;29549;40.386;-3.710;2022-10-16T06:31:42;18.10;;;6.25;;
43540;SDS011;29549;40.386;-3.710;2022-10-16T06:41:45;6.53;;;4.97;;
43540;SDS011;29549;40.386;-3.710;2022-10-16T06:51:47;6.55;;;4.55;;
43540;SDS011;29549;40.386;-3.710;2022-10-16T07:11:53;6.85;;;5.03;;
43540;SDS011;29549;40.386;-3.710;2022-10-16T07:21:55;7.85;;;5.60;;
43540;SDS011;29549;40.386;-3.710;2022-10-16T07:31:59;7.73;;;5.53;;
43540;SDS011;29549;40.386;-3.710;2022-10-16T07:42:01;8.90;;;6.38;;
43540;SDS011;29549;40.386;-3.710;2022-10-16T07:52:03;9.10;;;5.80;;
43540;SDS011;29549;40.386;-3.710;2022-10-16T08:02:06;15.07;;;6.13;;
43540;SDS011;29549;40.386;-3.710;2022-10-16T08:12:08;12.60;;;6.78;;
43540;SDS011;29549;40.386;-3.710;2022-10-16T08:22:12;10.05;;;6.70;;
43540;SDS011;29549;40.386;-3.710;2022-10-16T08:32:14;10.38;;;7.95;;
43540;SDS011;29549;40.386;-3.710;2022-10-16T08:52:32;11.45;;;8.35;;
43540;SDS011;29549;40.386;-3.710;2022-10-16T09:02:40;11.68;;;6.28;;
43540;SDS011;29549;40.386;-3.710;2022-10-16T09:12:53;15.35;;;8.43;;
43540;SDS011;29549;40.386;-3.710;2022-10-16T09:33:17;19.70;;;8.68;;
43540;SDS011;29549;40.386;-3.710;2022-10-16T09:53:39;16.13;;;8.33;;
43540;SDS011;29549;40.386;-3.710;2022-10-16T10:03:43;10.50;;;5.57;;
43540;SDS011;29549;40.386;-3.710;2022-10-16T10:13:46;7.68;;;4.63;;
43540;SDS011;29549;40.386;-3.710;2022-10-16T10:23:54;13.55;;;6.57;;
43540;SDS011;29549;40.386;-3.710;2022-10-16T10:54:26;10.57;;;5.07;;
43540;SDS011;29549;40.386;-3.710;2022-10-16T11:15:18;15.00;;;5.97;;
43540;SDS011;29549;40.386;-3.710;2022-10-16T11:25:28;10.15;;;4.82;;
43540;SDS011;29549;40.386;-3.710;2022-10-16T11:45:51;10.63;;;5.75;;
43540;SDS011;29549;40.386;-3.710;2022-10-16T11:55:56;15.75;;;4.30;;
43540;SDS011;29549;40.386;-3.710;2022-10-16T12:16:21;8.33;;;4.70;;
43540;SDS011;29549;40.386;-3.710;2022-10-16T12:26:33;10.85;;;4.00;;
43540;SDS011;29549;40.386;-3.710;2022-10-16T12:36:40;8.68;;;3.95;;
43540;SDS011;29549;40.386;-3.710;2022-10-16T12:46:42;8.35;;;4.10;;
43540;SDS011;29549;40.386;-3.710;2022-10-16T13:17:23;9.07;;;4.15;;
43540;SDS011;29549;40.386;-3.710;2022-10-16T13:37:45;13.88;;;4.07;;
43540;SDS011;29549;40.386;-3.710;2022-10-16T13:57:49;8.32;;;3.17;;
43540;SDS011;29549;40.386;-3.710;2022-10-16T14:07:50;9.50;;;4.65;;
43540;SDS011;29549;40.386;-3.710;2022-10-16T14:17:53;8.40;;;3.33;;
43540;SDS011;29549;40.386;-3.710;2022-10-16T14:38:16;9.40;;;3.28;;
43540;SDS011;29549;40.386;-3.710;2022-10-16T14:48:20;7.28;;;2.97;;
43540;SDS011;29549;40.386;-3.710;2022-10-16T14:58:22;6.83;;;3.20;;
43540;SDS011;29549;40.386;-3.710;2022-10-16T15:08:25;12.27;;;3.35;;
43540;SDS011;29549;40.386;-3.710;2022-10-16T15:18:27;10.70;;;4.87;;
43540;SDS011;29549;40.386;-3.710;2022-10-16T15:28:29;8.35;;;2.90;;
43540;SDS011;29549;40.386;-3.710;2022-10-16T15:38:31;10.30;;;3.77;;
43540;SDS011;29549;40.386;-3.710;2022-10-16T15:48:33;13.60;;;3.60;;
43540;SDS011;29549;40.386;-3.710;2022-10-16T15:58:34;7.70;;;3.80;;
43540;SDS011;29549;40.386;-3.710;2022-10-16T16:08:37;10.03;;;3.70;;
43540;SDS011;29549;40.386;-3.710;2022-10-16T16:18:42;9.32;;;3.60;;
43540;SDS011;29549;40.386;-3.710;2022-10-16T16:28:46;10.65;;;4.45;;
43540;SDS011;29549;40.386;-3.710;2022-10-16T16:38:47;13.30;;;5.03;;
43540;SDS011;29549;40.386;-3.710;2022-10-16T16:48:50;7.78;;;4.35;;
43540;SDS011;29549;40.386;-3.710;2022-10-16T16:58:55;10.23;;;4.07;;
43540;SDS011;29549;40.386;-3.710;2022-10-16T17:09:00;14.20;;;4.40;;
43540;SDS011;29549;40.386;-3.710;2022-10-16T17:19:08;9.85;;;4.95;;
43540;SDS011;29549;40.386;-3.710;2022-10-16T17:29:15;8.38;;;3.35;;
43540;SDS011;29549;40.386;-3.710;2022-10-16T17:39:18;10.98;;;4.95;;
43540;SDS011;29549;40.386;-3.710;2022-10-16T17:49:21;22.63;;;12.65;;
43540;SDS011;29549;40.386;-3.710;2022-10-16T17:59:24;14.98;;;7.30;;
43540;SDS011;29549;40.386;-3.710;2022-10-16T18:09:26;20.13;;;8.17;;
43540;SDS011;29549;40.386;-3.710;2022-10-16T18:19:28;19.55;;;7.40;;
43540;SDS011;29549;40.386;-3.710;2022-10-16T18:29:30;24.57;;;11.13;;
43540;SDS011;29549;40.386;-3.710;2022-10-16T18:39:33;17.27;;;9.52;;
43540;SDS011;29549;40.386;-3.710;2022-10-16T18:49:34;21.50;;;9.45;;
43540;SDS011;29549;40.386;-3.710;2022-10-16T18:59:37;21.80;;;8.45;;
43540;SDS011;29549;40.386;-3.710;2022-10-16T19:09:39;15.23;;;7.43;;
43540;SDS011;29549;40.386;-3.710;2022-10-16T19:19:41;12.40;;;6.65;;
43540;SDS011;29549;40.386;-3.710;2022-10-16T19:29:43;13.13;;;5.10;;
43540;SDS011;29549;40.386;-3.710;2022-10-16T19:39:45;16.67;;;5.33;;
43540;SDS011;29549;40.386;-3.710;2022-10-16T19:49:49;13.55;;;5.15;;
43540;SDS011;29549;40.386;-3.710;2022-10-16T19:59:52;13.57;;;5.40;;
43540;SDS011;29549;40.386;-3.710;2022-10-16T20:09:54;10.97;;;4.70;;
43540;SDS011;29549;40.386;-3.710;2022-10-16T20:19:56;11.00;;;6.35;;
43540;SDS011;29549;40.386;-3.710;2022-10-16T20:29:58;16.23;;;8.17;;
43540;SDS011;29549;40.386;-3.710;2022-10-16T20:39:59;12.82;;;6.97;;
43540;SDS011;29549;40.386;-3.710;2022-10-16T20:50:01;12.55;;;6.00;;
43540;SDS011;29549;40.386;-3.710;2022-10-16T21:00:04;10.90;;;5.20;;
43540;SDS011;29549;40.386;-3.710;2022-10-16T21:10:06;15.38;;;5.78;;
43540;SDS011;29549;40.386;-3.710;2022-10-16T21:20:08;9.23;;;4.13;;
43540;SDS011;29549;40.386;-3.710;2022-10-16T21:30:11;11.00;;;4.75;;
43540;SDS011;29549;40.386;-3.710;2022-10-16T21:40:16;10.93;;;4.28;;
43540;SDS011;29549;40.386;-3.710;2022-10-16T21:50:18;10.68;;;4.38;;
43540;SDS011;29549;40.386;-3.710;2022-10-16T22:00:19;10.73;;;4.80;;
43540;SDS011;29549;40.386;-3.710;2022-10-16T22:10:21;12.45;;;4.93;;
43540;SDS011;29549;40.386;-3.710;2022-10-16T22:20:22;14.82;;;5.22;;
43540;SDS011;29549;40.386;-3.710;2022-10-16T22:30:24;9.40;;;4.72;;
43540;SDS011;29549;40.386;-3.710;2022-10-16T22:40:26;12.10;;;5.25;;
43540;SDS011;29549;40.386;-3.710;2022-10-16T22:50:33;11.15;;;5.43;;
43540;SDS011;29549;40.386;-3.710;2022-10-16T23:00:35;12.55;;;6.15;;
43540;SDS011;29549;40.386;-3.710;2022-10-16T23:10:38;12.70;;;6.45;;
43540;SDS011;29549;40.386;-3.710;2022-10-16T23:20:41;11.35;;;6.60;;
43540;SDS011;29549;40.386;-3.710;2022-10-16T23:30:43;16.42;;;6.30;;
43540;SDS011;29549;40.386;-3.710;2022-10-16T23:40:52;10.80;;;6.50;;
43540;SDS011;29549;40.386;-3.710;2022-10-16T23:50:54;11.85;;;6.82;;
